sensor_id;sensor_type;location;lat;lon;timestamp;P1;durP1;ratioP1;P2;durP2;ratioP2
2416;SDS011;1219;48.736;9.330;2023-07-13T00:01:11;4.73;;;1.90;;
2416;SDS011;1219;48.736;9.330;2023-07-13T00:03:37;2.10;;;1.90;;
2416;SDS011;1219;48.736;9.330;2023-07-13T00:06:05;2.03;;;1.70;;
2416;SDS011;1219;48.736;9.330;2023-07-13T00:08:31;1.90;;;1.80;;
2416;SDS011;1219;48.736;9.330;2023-07-13T00:10:58;3.37;;;1.80;;
2416;SDS011;1219;48.736;9.330;2023-07-13T00:13:24;4.47;;;1.70;;
2416;SDS011;1219;48.736;9.330;2023-07-13T00:15:49;2.20;;;2.10;;
2416;SDS011;1219;48.736;9.330;2023-07-13T00:18:15;2.20;;;2.10;;
2416;SDS011;1219;48.736;9.330;2023-07-13T00:20:41;3.40;;;1.83;;
2416;SDS011;1219;48.736;9.330;2023-07-13T00:23:08;2.83;;;1.70;;
2416;SDS011;1219;48.736;9.330;2023-07-13T00:25:34;4.70;;;1.70;;
2416;SDS011;1219;48.736;9.330;2023-07-13T00:28:00;2.33;;;1.93;;
2416;SDS011;1219;48.736;9.330;2023-07-13T00:30:26;3.83;;;1.50;;
2416;SDS011;1219;48.736;9.330;2023-07-13T00:32:52;2.63;;;1.73;;
2416;SDS011;1219;48.736;9.330;2023-07-13T00:35:18;3.40;;;1.80;;
2416;SDS011;1219;48.736;9.330;2023-07-13T00:37:44;3.43;;;1.93;;
2416;SDS011;1219;48.736;9.330;2023-07-13T00:40:13;3.00;;;1.90;;
2416;SDS011;1219;48.736;9.330;2023-07-13T00:42:40;1.83;;;1.73;;
2416;SDS011;1219;48.736;9.330;2023-07-13T00:47:38;2.00;;;1.90;;
2416;SDS011;1219;48.736;9.330;2023-07-13T00:50:06;1.80;;;1.70;;
2416;SDS011;1219;48.736;9.330;2023-07-13T00:52:33;2.00;;;1.80;;
2416;SDS011;1219;48.736;9.330;2023-07-13T00:55:00;2.90;;;1.90;;
2416;SDS011;1219;48.736;9.330;2023-07-13T00:57:27;4.10;;;1.57;;
2416;SDS011;1219;48.736;9.330;2023-07-13T00:59:55;9.20;;;1.90;;
2416;SDS011;1219;48.736;9.330;2023-07-13T01:02:23;1.67;;;1.57;;
2416;SDS011;1219;48.736;9.330;2023-07-13T01:04:49;3.27;;;1.70;;
2416;SDS011;1219;48.736;9.330;2023-07-13T01:07:15;4.17;;;1.73;;
2416;SDS011;1219;48.736;9.330;2023-07-13T01:09:41;4.17;;;1.90;;
2416;SDS011;1219;48.736;9.330;2023-07-13T01:12:07;3.60;;;2.07;;
2416;SDS011;1219;48.736;9.330;2023-07-13T01:14:33;1.73;;;1.63;;
2416;SDS011;1219;48.736;9.330;2023-07-13T01:16:59;1.67;;;1.57;;
2416;SDS011;1219;48.736;9.330;2023-07-13T01:19:36;2.03;;;1.60;;
2416;SDS011;1219;48.736;9.330;2023-07-13T01:22:03;2.40;;;1.60;;
2416;SDS011;1219;48.736;9.330;2023-07-13T01:24:34;2.03;;;1.60;;
2416;SDS011;1219;48.736;9.330;2023-07-13T01:27:00;2.50;;;1.80;;
2416;SDS011;1219;48.736;9.330;2023-07-13T01:29:26;2.80;;;1.80;;
2416;SDS011;1219;48.736;9.330;2023-07-13T01:31:51;2.73;;;1.80;;
2416;SDS011;1219;48.736;9.330;2023-07-13T01:34:17;3.67;;;2.00;;
2416;SDS011;1219;48.736;9.330;2023-07-13T01:36:43;1.97;;;1.77;;
2416;SDS011;1219;48.736;9.330;2023-07-13T01:39:09;2.23;;;2.00;;
2416;SDS011;1219;48.736;9.330;2023-07-13T01:41:35;5.03;;;1.80;;
2416;SDS011;1219;48.736;9.330;2023-07-13T01:44:01;2.07;;;1.70;;
2416;SDS011;1219;48.736;9.330;2023-07-13T01:46:27;2.37;;;1.67;;
2416;SDS011;1219;48.736;9.330;2023-07-13T01:48:53;4.43;;;1.93;;
2416;SDS011;1219;48.736;9.330;2023-07-13T01:51:20;2.43;;;1.90;;
2416;SDS011;1219;48.736;9.330;2023-07-13T01:53:46;1.80;;;1.70;;
2416;SDS011;1219;48.736;9.330;2023-07-13T01:56:12;6.07;;;2.07;;
2416;SDS011;1219;48.736;9.330;2023-07-13T01:58:38;1.87;;;1.77;;
2416;SDS011;1219;48.736;9.330;2023-07-13T02:01:04;3.20;;;1.93;;
2416;SDS011;1219;48.736;9.330;2023-07-13T02:03:30;1.70;;;1.60;;
2416;SDS011;1219;48.736;9.330;2023-07-13T02:05:56;1.87;;;1.67;;
2416;SDS011;1219;48.736;9.330;2023-07-13T02:08:22;4.60;;;2.00;;
2416;SDS011;1219;48.736;9.330;2023-07-13T02:10:48;3.23;;;1.90;;
2416;SDS011;1219;48.736;9.330;2023-07-13T02:13:14;4.83;;;3.03;;
2416;SDS011;1219;48.736;9.330;2023-07-13T02:15:40;2.80;;;2.00;;
2416;SDS011;1219;48.736;9.330;2023-07-13T02:18:06;2.20;;;1.70;;
2416;SDS011;1219;48.736;9.330;2023-07-13T02:20:32;2.10;;;1.90;;
2416;SDS011;1219;48.736;9.330;2023-07-13T02:22:58;1.97;;;1.73;;
2416;SDS011;1219;48.736;9.330;2023-07-13T02:25:24;2.03;;;1.90;;
2416;SDS011;1219;48.736;9.330;2023-07-13T02:27:51;2.73;;;2.13;;
2416;SDS011;1219;48.736;9.330;2023-07-13T02:30:17;3.83;;;2.27;;
2416;SDS011;1219;48.736;9.330;2023-07-13T02:32:43;2.30;;;2.00;;
2416;SDS011;1219;48.736;9.330;2023-07-13T02:35:09;3.23;;;1.90;;
2416;SDS011;1219;48.736;9.330;2023-07-13T02:37:35;2.70;;;2.10;;
2416;SDS011;1219;48.736;9.330;2023-07-13T02:40:02;3.87;;;1.90;;
2416;SDS011;1219;48.736;9.330;2023-07-13T02:42:33;2.23;;;2.03;;
2416;SDS011;1219;48.736;9.330;2023-07-13T02:44:59;5.03;;;2.00;;
2416;SDS011;1219;48.736;9.330;2023-07-13T02:47:25;4.03;;;2.00;;
2416;SDS011;1219;48.736;9.330;2023-07-13T02:49:51;1.93;;;1.73;;
2416;SDS011;1219;48.736;9.330;2023-07-13T02:52:17;3.07;;;2.10;;
2416;SDS011;1219;48.736;9.330;2023-07-13T02:54:43;2.00;;;1.60;;
2416;SDS011;1219;48.736;9.330;2023-07-13T02:57:09;1.97;;;1.87;;
2416;SDS011;1219;48.736;9.330;2023-07-13T02:59:35;2.33;;;1.80;;
2416;SDS011;1219;48.736;9.330;2023-07-13T03:02:02;2.30;;;2.10;;
2416;SDS011;1219;48.736;9.330;2023-07-13T03:04:28;3.53;;;2.30;;
2416;SDS011;1219;48.736;9.330;2023-07-13T03:06:54;2.17;;;1.97;;
2416;SDS011;1219;48.736;9.330;2023-07-13T03:09:24;3.50;;;2.30;;
2416;SDS011;1219;48.736;9.330;2023-07-13T03:11:54;3.03;;;2.20;;
2416;SDS011;1219;48.736;9.330;2023-07-13T03:14:20;2.90;;;2.00;;
2416;SDS011;1219;48.736;9.330;2023-07-13T03:16:46;2.63;;;2.43;;
2416;SDS011;1219;48.736;9.330;2023-07-13T03:19:12;4.53;;;2.23;;
2416;SDS011;1219;48.736;9.330;2023-07-13T03:21:38;4.60;;;2.63;;
2416;SDS011;1219;48.736;9.330;2023-07-13T03:24:04;4.33;;;2.10;;
2416;SDS011;1219;48.736;9.330;2023-07-13T03:26:30;2.00;;;1.90;;
2416;SDS011;1219;48.736;9.330;2023-07-13T03:28:56;2.00;;;1.90;;
2416;SDS011;1219;48.736;9.330;2023-07-13T03:31:24;2.30;;;2.10;;
2416;SDS011;1219;48.736;9.330;2023-07-13T03:33:50;6.03;;;2.30;;
2416;SDS011;1219;48.736;9.330;2023-07-13T03:36:18;1.80;;;1.70;;
2416;SDS011;1219;48.736;9.330;2023-07-13T03:38:48;2.60;;;1.77;;
2416;SDS011;1219;48.736;9.330;2023-07-13T03:41:15;4.10;;;2.00;;
2416;SDS011;1219;48.736;9.330;2023-07-13T03:43:41;5.03;;;2.47;;
2416;SDS011;1219;48.736;9.330;2023-07-13T03:46:07;3.17;;;2.13;;
2416;SDS011;1219;48.736;9.330;2023-07-13T03:48:33;2.23;;;2.00;;
2416;SDS011;1219;48.736;9.330;2023-07-13T03:50:59;3.47;;;2.53;;
2416;SDS011;1219;48.736;9.330;2023-07-13T03:53:25;1.80;;;1.70;;
2416;SDS011;1219;48.736;9.330;2023-07-13T03:55:51;3.33;;;2.10;;
2416;SDS011;1219;48.736;9.330;2023-07-13T04:00:49;4.70;;;1.90;;
2416;SDS011;1219;48.736;9.330;2023-07-13T04:03:15;2.60;;;2.23;;
2416;SDS011;1219;48.736;9.330;2023-07-13T04:05:41;1.93;;;1.83;;
2416;SDS011;1219;48.736;9.330;2023-07-13T04:08:07;2.60;;;2.00;;
2416;SDS011;1219;48.736;9.330;2023-07-13T04:10:33;2.90;;;2.10;;
2416;SDS011;1219;48.736;9.330;2023-07-13T04:12:59;5.50;;;2.33;;
2416;SDS011;1219;48.736;9.330;2023-07-13T04:15:26;3.53;;;2.07;;
2416;SDS011;1219;48.736;9.330;2023-07-13T04:17:52;2.23;;;1.90;;
2416;SDS011;1219;48.736;9.330;2023-07-13T04:20:18;3.67;;;2.30;;
2416;SDS011;1219;48.736;9.330;2023-07-13T04:22:45;2.50;;;2.30;;
2416;SDS011;1219;48.736;9.330;2023-07-13T04:25:11;2.20;;;2.00;;
2416;SDS011;1219;48.736;9.330;2023-07-13T04:27:37;4.40;;;2.10;;
2416;SDS011;1219;48.736;9.330;2023-07-13T04:30:04;2.87;;;2.60;;
2416;SDS011;1219;48.736;9.330;2023-07-13T04:32:32;2.17;;;1.97;;
2416;SDS011;1219;48.736;9.330;2023-07-13T04:34:58;2.73;;;2.50;;
2416;SDS011;1219;48.736;9.330;2023-07-13T04:37:25;2.20;;;2.00;;
2416;SDS011;1219;48.736;9.330;2023-07-13T04:39:51;2.23;;;2.00;;
2416;SDS011;1219;48.736;9.330;2023-07-13T04:42:17;2.10;;;2.00;;
2416;SDS011;1219;48.736;9.330;2023-07-13T04:44:49;5.07;;;2.53;;
2416;SDS011;1219;48.736;9.330;2023-07-13T04:47:16;1.97;;;1.77;;
2416;SDS011;1219;48.736;9.330;2023-07-13T04:49:42;6.30;;;2.10;;
2416;SDS011;1219;48.736;9.330;2023-07-13T04:52:08;2.20;;;2.03;;
2416;SDS011;1219;48.736;9.330;2023-07-13T04:54:34;1.97;;;1.87;;
2416;SDS011;1219;48.736;9.330;2023-07-13T04:57:00;2.67;;;2.10;;
2416;SDS011;1219;48.736;9.330;2023-07-13T04:59:26;4.67;;;2.20;;
2416;SDS011;1219;48.736;9.330;2023-07-13T05:01:52;6.57;;;2.20;;
2416;SDS011;1219;48.736;9.330;2023-07-13T05:04:18;2.30;;;2.10;;
2416;SDS011;1219;48.736;9.330;2023-07-13T05:06:44;2.93;;;2.27;;
2416;SDS011;1219;48.736;9.330;2023-07-13T05:09:10;3.70;;;2.20;;
2416;SDS011;1219;48.736;9.330;2023-07-13T05:11:37;4.20;;;1.90;;
2416;SDS011;1219;48.736;9.330;2023-07-13T05:14:03;2.20;;;2.00;;
2416;SDS011;1219;48.736;9.330;2023-07-13T05:16:29;3.40;;;2.27;;
2416;SDS011;1219;48.736;9.330;2023-07-13T05:18:56;2.40;;;2.20;;
2416;SDS011;1219;48.736;9.330;2023-07-13T05:21:22;2.30;;;2.10;;
2416;SDS011;1219;48.736;9.330;2023-07-13T05:23:48;2.53;;;2.33;;
2416;SDS011;1219;48.736;9.330;2023-07-13T05:26:14;6.77;;;2.40;;
2416;SDS011;1219;48.736;9.330;2023-07-13T05:28:40;5.30;;;2.10;;
2416;SDS011;1219;48.736;9.330;2023-07-13T05:31:07;3.90;;;2.37;;
2416;SDS011;1219;48.736;9.330;2023-07-13T05:33:33;4.50;;;2.20;;
2416;SDS011;1219;48.736;9.330;2023-07-13T05:35:59;3.80;;;1.90;;
2416;SDS011;1219;48.736;9.330;2023-07-13T05:38:25;2.10;;;2.00;;
2416;SDS011;1219;48.736;9.330;2023-07-13T05:40:53;3.20;;;2.27;;
2416;SDS011;1219;48.736;9.330;2023-07-13T05:43:19;2.97;;;2.33;;
2416;SDS011;1219;48.736;9.330;2023-07-13T05:45:45;6.60;;;2.03;;
2416;SDS011;1219;48.736;9.330;2023-07-13T05:48:11;2.73;;;2.13;;
2416;SDS011;1219;48.736;9.330;2023-07-13T05:50:37;3.17;;;2.30;;
2416;SDS011;1219;48.736;9.330;2023-07-13T05:53:03;4.10;;;3.70;;
2416;SDS011;1219;48.736;9.330;2023-07-13T05:55:29;2.30;;;2.10;;
2416;SDS011;1219;48.736;9.330;2023-07-13T05:57:55;4.87;;;2.63;;
2416;SDS011;1219;48.736;9.330;2023-07-13T06:00:22;2.40;;;2.10;;
2416;SDS011;1219;48.736;9.330;2023-07-13T06:02:49;3.90;;;2.40;;
2416;SDS011;1219;48.736;9.330;2023-07-13T06:05:15;4.83;;;2.10;;
2416;SDS011;1219;48.736;9.330;2023-07-13T06:07:41;2.10;;;2.00;;
2416;SDS011;1219;48.736;9.330;2023-07-13T06:10:07;2.77;;;2.40;;
2416;SDS011;1219;48.736;9.330;2023-07-13T06:12:33;2.73;;;2.53;;
2416;SDS011;1219;48.736;9.330;2023-07-13T06:14:59;3.50;;;2.17;;
2416;SDS011;1219;48.736;9.330;2023-07-13T06:17:25;2.80;;;2.40;;
2416;SDS011;1219;48.736;9.330;2023-07-13T06:19:51;2.53;;;2.40;;
2416;SDS011;1219;48.736;9.330;2023-07-13T06:22:17;2.80;;;2.50;;
2416;SDS011;1219;48.736;9.330;2023-07-13T06:24:43;2.90;;;2.37;;
2416;SDS011;1219;48.736;9.330;2023-07-13T06:27:09;4.63;;;2.17;;
2416;SDS011;1219;48.736;9.330;2023-07-13T06:29:35;3.93;;;2.40;;
2416;SDS011;1219;48.736;9.330;2023-07-13T06:32:01;2.20;;;2.10;;
2416;SDS011;1219;48.736;9.330;2023-07-13T06:34:27;7.20;;;2.30;;
2416;SDS011;1219;48.736;9.330;2023-07-13T06:36:53;2.40;;;2.20;;
2416;SDS011;1219;48.736;9.330;2023-07-13T06:39:19;2.50;;;2.30;;
2416;SDS011;1219;48.736;9.330;2023-07-13T06:41:44;3.27;;;2.23;;
2416;SDS011;1219;48.736;9.330;2023-07-13T06:44:10;5.10;;;2.37;;
2416;SDS011;1219;48.736;9.330;2023-07-13T06:46:37;2.53;;;2.07;;
2416;SDS011;1219;48.736;9.330;2023-07-13T06:49:03;2.33;;;2.13;;
2416;SDS011;1219;48.736;9.330;2023-07-13T06:51:28;7.57;;;2.53;;
2416;SDS011;1219;48.736;9.330;2023-07-13T06:53:54;2.60;;;2.40;;
2416;SDS011;1219;48.736;9.330;2023-07-13T06:56:21;6.00;;;2.67;;
2416;SDS011;1219;48.736;9.330;2023-07-13T06:58:47;2.10;;;1.97;;
2416;SDS011;1219;48.736;9.330;2023-07-13T07:01:13;2.60;;;2.40;;
2416;SDS011;1219;48.736;9.330;2023-07-13T07:03:38;2.57;;;2.30;;
2416;SDS011;1219;48.736;9.330;2023-07-13T07:06:12;3.80;;;2.13;;
2416;SDS011;1219;48.736;9.330;2023-07-13T07:08:39;2.50;;;2.30;;
2416;SDS011;1219;48.736;9.330;2023-07-13T07:11:05;3.00;;;2.20;;
2416;SDS011;1219;48.736;9.330;2023-07-13T07:13:31;3.33;;;2.20;;
2416;SDS011;1219;48.736;9.330;2023-07-13T07:15:57;3.33;;;2.33;;
2416;SDS011;1219;48.736;9.330;2023-07-13T07:18:25;4.20;;;2.57;;
2416;SDS011;1219;48.736;9.330;2023-07-13T07:20:51;4.20;;;2.30;;
2416;SDS011;1219;48.736;9.330;2023-07-13T07:23:17;2.13;;;2.00;;
2416;SDS011;1219;48.736;9.330;2023-07-13T07:25:44;3.93;;;2.10;;
2416;SDS011;1219;48.736;9.330;2023-07-13T07:28:10;4.60;;;2.40;;
2416;SDS011;1219;48.736;9.330;2023-07-13T07:30:36;2.80;;;2.17;;
2416;SDS011;1219;48.736;9.330;2023-07-13T07:33:03;2.77;;;2.57;;
2416;SDS011;1219;48.736;9.330;2023-07-13T07:35:29;2.37;;;2.13;;
2416;SDS011;1219;48.736;9.330;2023-07-13T07:37:54;3.10;;;2.23;;
2416;SDS011;1219;48.736;9.330;2023-07-13T07:40:20;3.13;;;1.80;;
2416;SDS011;1219;48.736;9.330;2023-07-13T07:42:46;2.07;;;1.87;;
2416;SDS011;1219;48.736;9.330;2023-07-13T07:45:13;3.20;;;2.20;;
2416;SDS011;1219;48.736;9.330;2023-07-13T07:47:39;3.13;;;1.63;;
2416;SDS011;1219;48.736;9.330;2023-07-13T07:50:05;2.60;;;2.00;;
2416;SDS011;1219;48.736;9.330;2023-07-13T07:52:31;7.20;;;1.93;;
2416;SDS011;1219;48.736;9.330;2023-07-13T07:54:57;2.00;;;1.77;;
2416;SDS011;1219;48.736;9.330;2023-07-13T07:57:23;4.40;;;1.80;;
2416;SDS011;1219;48.736;9.330;2023-07-13T07:59:49;4.60;;;1.87;;
2416;SDS011;1219;48.736;9.330;2023-07-13T08:02:15;2.00;;;1.80;;
2416;SDS011;1219;48.736;9.330;2023-07-13T08:04:41;5.30;;;2.00;;
2416;SDS011;1219;48.736;9.330;2023-07-13T08:07:07;2.20;;;2.10;;
2416;SDS011;1219;48.736;9.330;2023-07-13T08:09:33;2.07;;;1.97;;
2416;SDS011;1219;48.736;9.330;2023-07-13T08:11:59;4.60;;;1.80;;
2416;SDS011;1219;48.736;9.330;2023-07-13T08:14:25;5.40;;;1.90;;
2416;SDS011;1219;48.736;9.330;2023-07-13T08:16:51;3.90;;;1.60;;
2416;SDS011;1219;48.736;9.330;2023-07-13T08:19:17;1.87;;;1.77;;
2416;SDS011;1219;48.736;9.330;2023-07-13T08:21:43;3.47;;;1.93;;
2416;SDS011;1219;48.736;9.330;2023-07-13T08:24:09;2.30;;;2.00;;
2416;SDS011;1219;48.736;9.330;2023-07-13T08:26:35;5.33;;;2.80;;
2416;SDS011;1219;48.736;9.330;2023-07-13T08:29:02;3.40;;;3.07;;
2416;SDS011;1219;48.736;9.330;2023-07-13T08:31:28;3.70;;;2.33;;
2416;SDS011;1219;48.736;9.330;2023-07-13T08:33:54;2.07;;;1.97;;
2416;SDS011;1219;48.736;9.330;2023-07-13T08:36:20;2.83;;;2.03;;
2416;SDS011;1219;48.736;9.330;2023-07-13T08:38:46;2.00;;;1.90;;
2416;SDS011;1219;48.736;9.330;2023-07-13T08:41:13;2.47;;;1.80;;
2416;SDS011;1219;48.736;9.330;2023-07-13T08:43:39;4.37;;;1.80;;
2416;SDS011;1219;48.736;9.330;2023-07-13T08:46:12;2.20;;;2.00;;
2416;SDS011;1219;48.736;9.330;2023-07-13T08:48:46;3.00;;;2.00;;
2416;SDS011;1219;48.736;9.330;2023-07-13T08:53:42;4.87;;;1.77;;
2416;SDS011;1219;48.736;9.330;2023-07-13T08:56:11;1.93;;;1.70;;
2416;SDS011;1219;48.736;9.330;2023-07-13T08:58:38;3.73;;;1.90;;
2416;SDS011;1219;48.736;9.330;2023-07-13T09:01:08;3.13;;;2.10;;
2416;SDS011;1219;48.736;9.330;2023-07-13T09:03:59;1.73;;;1.63;;
2416;SDS011;1219;48.736;9.330;2023-07-13T09:06:35;2.30;;;2.10;;
2416;SDS011;1219;48.736;9.330;2023-07-13T09:09:03;2.30;;;1.80;;
2416;SDS011;1219;48.736;9.330;2023-07-13T09:11:39;2.27;;;1.90;;
2416;SDS011;1219;48.736;9.330;2023-07-13T09:16:52;3.50;;;2.10;;
2416;SDS011;1219;48.736;9.330;2023-07-13T09:19:21;2.73;;;1.73;;
2416;SDS011;1219;48.736;9.330;2023-07-13T09:21:49;2.10;;;2.00;;
2416;SDS011;1219;48.736;9.330;2023-07-13T09:24:33;2.40;;;2.00;;
2416;SDS011;1219;48.736;9.330;2023-07-13T09:27:01;2.17;;;1.50;;
2416;SDS011;1219;48.736;9.330;2023-07-13T09:29:34;3.50;;;2.10;;
2416;SDS011;1219;48.736;9.330;2023-07-13T09:32:04;2.17;;;1.70;;
2416;SDS011;1219;48.736;9.330;2023-07-13T09:34:32;2.90;;;2.00;;
2416;SDS011;1219;48.736;9.330;2023-07-13T09:36:58;2.03;;;1.83;;
2416;SDS011;1219;48.736;9.330;2023-07-13T09:39:35;1.80;;;1.70;;
2416;SDS011;1219;48.736;9.330;2023-07-13T09:42:15;2.60;;;1.80;;
2416;SDS011;1219;48.736;9.330;2023-07-13T09:47:20;2.40;;;1.73;;
2416;SDS011;1219;48.736;9.330;2023-07-13T09:52:23;1.77;;;1.67;;
2416;SDS011;1219;48.736;9.330;2023-07-13T09:54:50;4.20;;;1.97;;
2416;SDS011;1219;48.736;9.330;2023-07-13T09:57:17;2.47;;;1.77;;
2416;SDS011;1219;48.736;9.330;2023-07-13T09:59:44;1.70;;;1.60;;
2416;SDS011;1219;48.736;9.330;2023-07-13T10:02:25;2.20;;;1.73;;
2416;SDS011;1219;48.736;9.330;2023-07-13T10:04:58;4.87;;;2.10;;
2416;SDS011;1219;48.736;9.330;2023-07-13T10:07:25;3.70;;;1.90;;
2416;SDS011;1219;48.736;9.330;2023-07-13T10:09:52;2.60;;;2.10;;
2416;SDS011;1219;48.736;9.330;2023-07-13T10:12:19;1.80;;;1.70;;
2416;SDS011;1219;48.736;9.330;2023-07-13T10:14:45;2.67;;;1.90;;
2416;SDS011;1219;48.736;9.330;2023-07-13T10:17:12;4.00;;;1.80;;
2416;SDS011;1219;48.736;9.330;2023-07-13T10:19:39;2.50;;;1.70;;
2416;SDS011;1219;48.736;9.330;2023-07-13T10:22:27;5.10;;;1.90;;
2416;SDS011;1219;48.736;9.330;2023-07-13T10:24:57;5.40;;;2.00;;
2416;SDS011;1219;48.736;9.330;2023-07-13T10:27:28;5.00;;;2.10;;
2416;SDS011;1219;48.736;9.330;2023-07-13T10:29:58;2.83;;;2.00;;
2416;SDS011;1219;48.736;9.330;2023-07-13T10:32:27;2.33;;;2.13;;
2416;SDS011;1219;48.736;9.330;2023-07-13T10:34:53;2.27;;;2.17;;
2416;SDS011;1219;48.736;9.330;2023-07-13T10:37:22;1.90;;;1.70;;
2416;SDS011;1219;48.736;9.330;2023-07-13T10:39:50;2.50;;;1.93;;
2416;SDS011;1219;48.736;9.330;2023-07-13T10:42:18;2.50;;;1.80;;
2416;SDS011;1219;48.736;9.330;2023-07-13T10:44:47;1.87;;;1.77;;
2416;SDS011;1219;48.736;9.330;2023-07-13T10:47:14;2.40;;;1.80;;
2416;SDS011;1219;48.736;9.330;2023-07-13T10:49:41;2.20;;;2.00;;
2416;SDS011;1219;48.736;9.330;2023-07-13T10:54:52;4.10;;;1.80;;
2416;SDS011;1219;48.736;9.330;2023-07-13T10:57:20;3.43;;;1.73;;
2416;SDS011;1219;48.736;9.330;2023-07-13T11:02:28;2.77;;;1.50;;
2416;SDS011;1219;48.736;9.330;2023-07-13T11:04:55;4.20;;;1.67;;
2416;SDS011;1219;48.736;9.330;2023-07-13T11:07:29;1.90;;;1.80;;
2416;SDS011;1219;48.736;9.330;2023-07-13T11:09:57;4.50;;;1.80;;
2416;SDS011;1219;48.736;9.330;2023-07-13T11:22:44;2.10;;;1.90;;
2416;SDS011;1219;48.736;9.330;2023-07-13T11:25:29;1.77;;;1.67;;
2416;SDS011;1219;48.736;9.330;2023-07-13T11:36:00;2.27;;;2.00;;
2416;SDS011;1219;48.736;9.330;2023-07-13T11:38:30;1.67;;;1.57;;
2416;SDS011;1219;48.736;9.330;2023-07-13T11:40:58;2.20;;;1.10;;
2416;SDS011;1219;48.736;9.330;2023-07-13T11:43:28;2.30;;;1.63;;
2416;SDS011;1219;48.736;9.330;2023-07-13T11:45:54;5.33;;;2.13;;
2416;SDS011;1219;48.736;9.330;2023-07-13T11:48:21;1.73;;;1.00;;
2416;SDS011;1219;48.736;9.330;2023-07-13T11:50:51;1.43;;;1.30;;
2416;SDS011;1219;48.736;9.330;2023-07-13T11:53:18;2.30;;;1.20;;
2416;SDS011;1219;48.736;9.330;2023-07-13T11:55:44;3.20;;;1.23;;
2416;SDS011;1219;48.736;9.330;2023-07-13T11:58:11;2.10;;;1.80;;
2416;SDS011;1219;48.736;9.330;2023-07-13T12:00:38;2.10;;;1.57;;
2416;SDS011;1219;48.736;9.330;2023-07-13T12:03:06;2.80;;;1.23;;
2416;SDS011;1219;48.736;9.330;2023-07-13T12:05:32;2.37;;;1.60;;
2416;SDS011;1219;48.736;9.330;2023-07-13T12:07:59;2.37;;;1.63;;
2416;SDS011;1219;48.736;9.330;2023-07-13T12:10:34;3.57;;;1.70;;
2416;SDS011;1219;48.736;9.330;2023-07-13T12:13:04;2.73;;;1.30;;
2416;SDS011;1219;48.736;9.330;2023-07-13T12:15:37;3.83;;;1.30;;
2416;SDS011;1219;48.736;9.330;2023-07-13T12:18:10;2.37;;;1.20;;
2416;SDS011;1219;48.736;9.330;2023-07-13T12:20:37;6.03;;;1.20;;
2416;SDS011;1219;48.736;9.330;2023-07-13T12:25:49;4.50;;;2.03;;
2416;SDS011;1219;48.736;9.330;2023-07-13T12:28:22;1.47;;;1.10;;
2416;SDS011;1219;48.736;9.330;2023-07-13T12:30:48;1.90;;;1.52;;
2416;SDS011;1219;48.736;9.330;2023-07-13T12:33:15;2.13;;;1.52;;
2416;SDS011;1219;48.736;9.330;2023-07-13T12:35:44;1.40;;;1.30;;
2416;SDS011;1219;48.736;9.330;2023-07-13T12:38:11;3.88;;;1.30;;
2416;SDS011;1219;48.736;9.330;2023-07-13T12:40:38;2.20;;;1.13;;
2416;SDS011;1219;48.736;9.330;2023-07-13T12:43:05;1.50;;;1.30;;
2416;SDS011;1219;48.736;9.330;2023-07-13T12:45:36;1.75;;;1.05;;
2416;SDS011;1219;48.736;9.330;2023-07-13T12:48:04;2.55;;;1.40;;
2416;SDS011;1219;48.736;9.330;2023-07-13T12:50:37;3.25;;;1.20;;
2416;SDS011;1219;48.736;9.330;2023-07-13T12:53:05;1.80;;;1.00;;
2416;SDS011;1219;48.736;9.330;2023-07-13T12:55:39;1.52;;;1.15;;
2416;SDS011;1219;48.736;9.330;2023-07-13T12:58:06;3.25;;;1.20;;
2416;SDS011;1219;48.736;9.330;2023-07-13T13:00:36;2.08;;;1.10;;
2416;SDS011;1219;48.736;9.330;2023-07-13T13:03:07;2.45;;;1.30;;
2416;SDS011;1219;48.736;9.330;2023-07-13T13:05:40;1.88;;;1.10;;
2416;SDS011;1219;48.736;9.330;2023-07-13T13:08:08;1.58;;;1.10;;
2416;SDS011;1219;48.736;9.330;2023-07-13T13:10:36;2.10;;;1.15;;
2416;SDS011;1219;48.736;9.330;2023-07-13T13:13:02;5.63;;;1.40;;
2416;SDS011;1219;48.736;9.330;2023-07-13T13:15:28;1.70;;;1.42;;
2416;SDS011;1219;48.736;9.330;2023-07-13T13:17:55;2.97;;;1.20;;
2416;SDS011;1219;48.736;9.330;2023-07-13T13:20:21;2.08;;;1.52;;
2416;SDS011;1219;48.736;9.330;2023-07-13T13:22:48;2.80;;;1.30;;
2416;SDS011;1219;48.736;9.330;2023-07-13T13:25:14;1.30;;;1.15;;
2416;SDS011;1219;48.736;9.330;2023-07-13T13:27:40;1.27;;;1.17;;
2416;SDS011;1219;48.736;9.330;2023-07-13T13:30:14;2.45;;;1.48;;
2416;SDS011;1219;48.736;9.330;2023-07-13T13:32:41;1.80;;;1.10;;
2416;SDS011;1219;48.736;9.330;2023-07-13T13:35:17;2.38;;;1.00;;
2416;SDS011;1219;48.736;9.330;2023-07-13T13:37:44;5.18;;;1.63;;
2416;SDS011;1219;48.736;9.330;2023-07-13T13:40:14;2.13;;;1.27;;
2416;SDS011;1219;48.736;9.330;2023-07-13T13:42:41;1.80;;;1.13;;
2416;SDS011;1219;48.736;9.330;2023-07-13T13:45:08;3.10;;;1.60;;
2416;SDS011;1219;48.736;9.330;2023-07-13T13:47:34;2.00;;;1.33;;
2416;SDS011;1219;48.736;9.330;2023-07-13T13:50:01;1.50;;;1.40;;
2416;SDS011;1219;48.736;9.330;2023-07-13T13:52:27;3.43;;;1.50;;
2416;SDS011;1219;48.736;9.330;2023-07-13T13:54:53;2.30;;;1.97;;
2416;SDS011;1219;48.736;9.330;2023-07-13T13:57:23;2.00;;;1.90;;
2416;SDS011;1219;48.736;9.330;2023-07-13T13:59:49;4.17;;;1.70;;
2416;SDS011;1219;48.736;9.330;2023-07-13T14:02:34;2.60;;;1.90;;
2416;SDS011;1219;48.736;9.330;2023-07-13T14:05:03;2.10;;;1.40;;
2416;SDS011;1219;48.736;9.330;2023-07-13T14:07:30;2.53;;;1.63;;
2416;SDS011;1219;48.736;9.330;2023-07-13T14:09:57;2.03;;;1.60;;
2416;SDS011;1219;48.736;9.330;2023-07-13T14:12:24;2.77;;;1.70;;
2416;SDS011;1219;48.736;9.330;2023-07-13T14:14:53;1.77;;;1.17;;
2416;SDS011;1219;48.736;9.330;2023-07-13T14:17:20;2.60;;;1.50;;
2416;SDS011;1219;48.736;9.330;2023-07-13T14:19:47;2.50;;;1.37;;
2416;SDS011;1219;48.736;9.330;2023-07-13T14:22:15;3.43;;;1.53;;
2416;SDS011;1219;48.736;9.330;2023-07-13T14:24:42;2.23;;;1.23;;
2416;SDS011;1219;48.736;9.330;2023-07-13T14:27:09;1.30;;;1.20;;
2416;SDS011;1219;48.736;9.330;2023-07-13T14:29:35;3.00;;;1.40;;
2416;SDS011;1219;48.736;9.330;2023-07-13T14:32:01;2.60;;;1.40;;
2416;SDS011;1219;48.736;9.330;2023-07-13T14:34:27;3.07;;;1.47;;
2416;SDS011;1219;48.736;9.330;2023-07-13T14:36:53;1.70;;;1.20;;
2416;SDS011;1219;48.736;9.330;2023-07-13T14:39:20;1.57;;;1.30;;
2416;SDS011;1219;48.736;9.330;2023-07-13T14:41:49;1.40;;;1.17;;
2416;SDS011;1219;48.736;9.330;2023-07-13T14:44:16;3.70;;;1.33;;
2416;SDS011;1219;48.736;9.330;2023-07-13T14:46:42;2.97;;;1.50;;
2416;SDS011;1219;48.736;9.330;2023-07-13T14:51:35;3.27;;;1.60;;
2416;SDS011;1219;48.736;9.330;2023-07-13T14:54:02;1.73;;;1.27;;
2416;SDS011;1219;48.736;9.330;2023-07-13T14:56:29;1.73;;;1.63;;
2416;SDS011;1219;48.736;9.330;2023-07-13T14:58:55;2.53;;;1.70;;
2416;SDS011;1219;48.736;9.330;2023-07-13T15:01:21;2.07;;;1.50;;
2416;SDS011;1219;48.736;9.330;2023-07-13T15:03:48;2.00;;;1.60;;
2416;SDS011;1219;48.736;9.330;2023-07-13T15:06:14;2.97;;;1.60;;
2416;SDS011;1219;48.736;9.330;2023-07-13T15:08:40;2.33;;;1.90;;
2416;SDS011;1219;48.736;9.330;2023-07-13T15:11:07;2.20;;;1.47;;
2416;SDS011;1219;48.736;9.330;2023-07-13T15:13:33;1.70;;;1.60;;
2416;SDS011;1219;48.736;9.330;2023-07-13T15:16:00;3.37;;;1.80;;
2416;SDS011;1219;48.736;9.330;2023-07-13T15:18:26;1.57;;;1.47;;
2416;SDS011;1219;48.736;9.330;2023-07-13T15:20:52;1.80;;;1.40;;
2416;SDS011;1219;48.736;9.330;2023-07-13T15:23:20;4.60;;;1.93;;
2416;SDS011;1219;48.736;9.330;2023-07-13T15:25:47;4.00;;;1.60;;
2416;SDS011;1219;48.736;9.330;2023-07-13T15:28:14;5.27;;;1.60;;
2416;SDS011;1219;48.736;9.330;2023-07-13T15:30:41;1.90;;;1.80;;
2416;SDS011;1219;48.736;9.330;2023-07-13T15:35:36;1.50;;;1.40;;
2416;SDS011;1219;48.736;9.330;2023-07-13T15:38:10;4.13;;;1.87;;
2416;SDS011;1219;48.736;9.330;2023-07-13T15:40:38;1.80;;;1.70;;
2416;SDS011;1219;48.736;9.330;2023-07-13T15:43:09;2.30;;;1.90;;
2416;SDS011;1219;48.736;9.330;2023-07-13T15:45:36;3.33;;;1.50;;
2416;SDS011;1219;48.736;9.330;2023-07-13T15:48:07;2.90;;;1.40;;
2416;SDS011;1219;48.736;9.330;2023-07-13T15:50:39;2.13;;;1.50;;
2416;SDS011;1219;48.736;9.330;2023-07-13T15:53:08;1.63;;;1.03;;
2416;SDS011;1219;48.736;9.330;2023-07-13T15:55:37;1.63;;;1.53;;
2416;SDS011;1219;48.736;9.330;2023-07-13T15:58:04;3.10;;;1.40;;
2416;SDS011;1219;48.736;9.330;2023-07-13T16:00:30;1.73;;;1.33;;
2416;SDS011;1219;48.736;9.330;2023-07-13T16:02:56;3.73;;;1.50;;